createdAt,value
2023-03-02T00:01:11.598Z,66.54
2023-03-02T00:03:38.044Z,66.32
2023-03-02T00:06:05.490Z,66.25
2023-03-02T00:08:32.900Z,66.16
2023-03-02T00:10:59.248Z,66.47
2023-03-02T00:13:25.588Z,66.62
2023-03-02T00:15:59.226Z,66.66
2023-03-02T00:18:26.446Z,66.39
2023-03-02T00:20:52.805Z,66.39
2023-03-02T00:23:19.278Z,66.31
2023-03-02T00:25:45.618Z,66.44
2023-03-02T00:28:12.106Z,66.37
2023-03-02T00:30:38.481Z,65.79
2023-03-02T00:33:05.048Z,66.16
2023-03-02T00:35:31.864Z,66.46
2023-03-02T00:37:58.334Z,66.56
2023-03-02T00:40:24.671Z,66.46
2023-03-02T00:42:51.200Z,66.49
2023-03-02T00:45:18.352Z,66.55
2023-03-02T00:47:44.733Z,66.35
2023-03-02T00:50:11.361Z,66.67
2023-03-02T00:52:37.769Z,66.52
2023-03-02T00:55:04.132Z,66.81
2023-03-02T00:57:30.599Z,66.80
2023-03-02T00:59:57.173Z,66.87
2023-03-02T01:02:23.674Z,66.94
2023-03-02T01:04:50.234Z,66.46
2023-03-02T01:07:16.631Z,66.58
2023-03-02T01:09:43.149Z,66.51
2023-03-02T01:12:09.566Z,66.24
2023-03-02T01:14:36.059Z,66.41
2023-03-02T01:17:02.413Z,66.26
2023-03-02T01:22:19.207Z,66.28
2023-03-02T01:24:45.916Z,66.25
2023-03-02T01:27:12.386Z,66.29
2023-03-02T01:29:39.819Z,66.11
2023-03-02T01:32:06.728Z,66.35
2023-03-02T01:34:33.166Z,66.61
2023-03-02T01:37:00.236Z,66.65
2023-03-02T01:39:29.530Z,66.69
2023-03-02T01:41:55.918Z,66.69
2023-03-02T01:44:24.633Z,66.41
2023-03-02T01:46:51.349Z,66.46
2023-03-02T01:49:17.694Z,66.56
2023-03-02T01:51:44.096Z,65.71
2023-03-02T01:54:13.110Z,65.49
2023-03-02T01:56:39.627Z,65.81
2023-03-02T01:59:06.014Z,66.39
2023-03-02T02:01:32.398Z,66.67
2023-03-02T02:03:59.100Z,66.54
2023-03-02T02:06:25.497Z,67.41
2023-03-02T02:08:54.309Z,67.24
2023-03-02T02:11:20.788Z,67.50
2023-03-02T02:13:47.150Z,67.67
2023-03-02T02:16:13.718Z,67.10
2023-03-02T02:18:40.307Z,66.91
2023-03-02T02:21:06.702Z,66.94
2023-03-02T02:23:33.100Z,67.48
2023-03-02T02:25:59.486Z,67.90
2023-03-02T02:28:27.083Z,67.98
2023-03-02T02:30:53.788Z,68.09
2023-03-02T02:33:20.177Z,68.19
2023-03-02T02:35:46.570Z,68.09
2023-03-02T02:38:13.183Z,68.26
2023-03-02T02:40:44.505Z,68.13
2023-03-02T02:43:15.591Z,68.16
2023-03-02T02:45:42.262Z,67.42
2023-03-02T02:48:09.010Z,67.48
2023-03-02T02:50:35.490Z,67.67
2023-03-02T02:53:02.891Z,67.30
2023-03-02T02:55:30.428Z,67.67
2023-03-02T02:57:56.806Z,68.17
2023-03-02T03:00:23.153Z,68.34
2023-03-02T03:02:49.923Z,68.21
2023-03-02T03:05:16.311Z,67.92
2023-03-02T03:07:42.664Z,68.09
2023-03-02T03:10:09.478Z,67.89
2023-03-02T03:12:35.895Z,67.87
2023-03-02T03:15:09.698Z,67.72
2023-03-02T03:17:36.112Z,68.00
2023-03-02T03:20:02.452Z,67.21
2023-03-02T03:22:29.388Z,67.05
2023-03-02T03:24:55.874Z,67.26
2023-03-02T03:27:22.348Z,67.11
2023-03-02T03:29:48.737Z,66.90
2023-03-02T03:32:15.390Z,66.98
2023-03-02T03:34:43.891Z,67.39
2023-03-02T03:37:10.385Z,68.11
2023-03-02T03:39:36.984Z,67.90
2023-03-02T03:42:07.627Z,67.21
2023-03-02T03:44:34.007Z,67.10
2023-03-02T03:47:00.796Z,66.94
2023-03-02T03:49:28.290Z,66.58
2023-03-02T03:51:54.662Z,66.38
2023-03-02T03:54:21.067Z,66.47
2023-03-02T03:56:49.992Z,66.89
2023-03-02T03:59:16.460Z,67.63
2023-03-02T04:01:42.947Z,67.57
2023-03-02T04:04:09.574Z,66.77
2023-03-02T04:06:36.020Z,67.02
2023-03-02T04:09:03.378Z,67.26
2023-03-02T04:11:39.137Z,67.37
2023-03-02T04:14:05.660Z,67.33
2023-03-02T04:16:34.425Z,67.25
2023-03-02T04:19:01.007Z,67.40
2023-03-02T04:21:27.408Z,67.35
2023-03-02T04:23:57.267Z,67.59
2023-03-02T04:26:25.938Z,67.55
2023-03-02T04:28:55.808Z,67.64
2023-03-02T04:31:22.389Z,67.21
2023-03-02T04:33:49.120Z,66.99
2023-03-02T04:36:17.901Z,67.00
2023-03-02T04:38:45.520Z,67.05
2023-03-02T04:41:13.435Z,67.38
2023-03-02T04:43:40.225Z,67.34
2023-03-02T04:46:06.647Z,67.00
2023-03-02T04:48:33.079Z,67.10
2023-03-02T04:50:59.632Z,66.94
2023-03-02T04:53:26.155Z,67.02
2023-03-02T04:55:52.518Z,67.10
2023-03-02T04:58:18.923Z,66.80
2023-03-02T05:00:45.284Z,67.09
2023-03-02T05:03:11.680Z,67.24
2023-03-02T05:05:38.404Z,67.04
2023-03-02T05:08:07.405Z,66.98
2023-03-02T05:10:34.354Z,66.92
2023-03-02T05:13:01.064Z,66.80
2023-03-02T05:15:27.432Z,66.81
2023-03-02T05:17:53.977Z,66.93
2023-03-02T05:20:20.721Z,66.47
2023-03-02T05:22:47.207Z,66.62
2023-03-02T05:25:15.014Z,66.91
2023-03-02T05:27:41.436Z,67.21
2023-03-02T05:30:08.395Z,67.21
2023-03-02T05:32:35.375Z,67.42
2023-03-02T05:35:01.779Z,67.37
2023-03-02T05:37:28.287Z,67.08
2023-03-02T05:39:55.666Z,67.13
2023-03-02T05:42:24.219Z,67.43
2023-03-02T05:44:50.782Z,67.37
2023-03-02T05:47:18.248Z,67.20
2023-03-02T05:49:44.753Z,67.20
2023-03-02T05:52:11.322Z,67.23
2023-03-02T05:54:37.946Z,67.26
2023-03-02T05:57:05.523Z,67.11
2023-03-02T05:59:31.939Z,67.05
2023-03-02T06:01:58.592Z,67.38
2023-03-02T06:04:25.436Z,67.48
2023-03-02T06:06:52.251Z,67.86
2023-03-02T06:09:18.693Z,67.32
2023-03-02T06:11:45.086Z,67.31
2023-03-02T06:14:11.441Z,67.57
2023-03-02T06:16:38.382Z,67.96
2023-03-02T06:19:06.005Z,68.21
2023-03-02T06:21:32.504Z,68.29
2023-03-02T06:23:59.287Z,68.06
2023-03-02T06:26:25.695Z,68.09
2023-03-02T06:28:53.901Z,68.31
2023-03-02T06:31:20.850Z,67.30
2023-03-02T06:33:54.099Z,66.69
2023-03-02T06:36:20.627Z,67.29
2023-03-02T06:38:49.454Z,67.49
2023-03-02T06:41:16.875Z,67.41
2023-03-02T06:43:43.267Z,67.57
2023-03-02T06:46:09.874Z,67.38
2023-03-02T06:48:36.353Z,67.39
2023-03-02T06:51:04.999Z,67.68
2023-03-02T06:53:33.440Z,66.90
2023-03-02T06:55:59.836Z,67.39
2023-03-02T06:58:26.885Z,67.24
2023-03-02T07:00:55.719Z,67.97
2023-03-02T07:03:22.130Z,67.33
2023-03-02T07:05:48.592Z,67.49
2023-03-02T07:08:15.213Z,67.39
2023-03-02T07:10:42.359Z,67.54
2023-03-02T07:13:09.847Z,67.31
2023-03-02T07:15:36.244Z,68.09
2023-03-02T07:18:03.330Z,68.34
2023-03-02T07:20:29.770Z,68.14
2023-03-02T07:22:56.187Z,68.13
2023-03-02T07:25:22.839Z,67.93
2023-03-02T07:27:49.242Z,67.14
2023-03-02T07:30:15.668Z,66.87
2023-03-02T07:32:42.136Z,66.90
2023-03-02T07:35:08.516Z,67.53
2023-03-02T07:37:34.875Z,67.82
2023-03-02T07:40:01.285Z,67.13
2023-03-02T07:42:28.690Z,66.77
2023-03-02T07:44:56.683Z,65.96
2023-03-02T07:47:23.095Z,65.99
2023-03-02T07:49:52.379Z,65.88
2023-03-02T07:52:18.985Z,66.26
2023-03-02T07:54:45.335Z,66.17
2023-03-02T07:57:11.669Z,66.11
2023-03-02T07:59:38.244Z,65.72
2023-03-02T08:02:04.942Z,67.04
2023-03-02T08:04:31.649Z,66.34
2023-03-02T08:06:58.356Z,66.17
2023-03-02T08:09:24.752Z,65.84
2023-03-02T08:11:51.133Z,65.72
2023-03-02T08:14:17.502Z,66.25
2023-03-02T08:16:43.891Z,65.01
2023-03-02T08:19:10.376Z,65.43
2023-03-02T08:21:36.910Z,65.39
2023-03-02T08:24:03.530Z,66.07
2023-03-02T08:26:30.232Z,64.38
2023-03-02T08:28:56.636Z,63.83
2023-03-02T08:31:24.108Z,63.96
2023-03-02T08:33:51.546Z,62.64
2023-03-02T08:36:21.213Z,61.30
2023-03-02T08:38:47.625Z,61.88
2023-03-02T08:41:14.038Z,61.12
2023-03-02T08:43:40.487Z,61.33
2023-03-02T08:46:07.266Z,61.45
2023-03-02T08:48:33.668Z,60.79
2023-03-02T08:51:00.256Z,60.21
2023-03-02T08:53:26.644Z,60.33
2023-03-02T08:55:53.083Z,59.15
2023-03-02T08:58:20.565Z,59.39
2023-03-02T09:00:46.989Z,60.43
2023-03-02T09:03:13.484Z,60.12
2023-03-02T09:05:39.869Z,59.91
2023-03-02T09:08:06.248Z,59.68
2023-03-02T09:10:32.822Z,59.57
2023-03-02T09:12:59.163Z,59.83
2023-03-02T09:15:25.638Z,58.93
2023-03-02T09:17:52.175Z,60.76
2023-03-02T09:20:18.598Z,58.33
2023-03-02T09:22:45.199Z,58.39
2023-03-02T09:25:12.599Z,59.34
2023-03-02T09:27:39.308Z,58.79
2023-03-02T09:30:05.964Z,57.73
2023-03-02T09:32:32.475Z,58.06
2023-03-02T09:34:58.954Z,57.40
2023-03-02T09:37:25.307Z,58.65
2023-03-02T09:39:58.895Z,58.06
2023-03-02T09:42:32.120Z,56.86
2023-03-02T09:45:05.168Z,57.61
2023-03-02T09:47:35.737Z,57.50
2023-03-02T09:50:02.520Z,57.02
2023-03-02T09:52:28.978Z,58.23
2023-03-02T09:54:55.370Z,57.98
2023-03-02T09:57:21.870Z,57.47
2023-03-02T09:59:48.445Z,56.84
2023-03-02T10:02:14.909Z,56.07
2023-03-02T10:04:44.184Z,55.97
2023-03-02T10:07:10.605Z,56.39
2023-03-02T10:09:37.000Z,57.13
2023-03-02T10:12:03.608Z,55.52
2023-03-02T10:17:20.538Z,55.30
2023-03-02T10:19:46.910Z,56.07
2023-03-02T10:22:13.648Z,55.18
2023-03-02T10:24:42.294Z,54.42
2023-03-02T10:27:08.681Z,54.36
2023-03-02T10:29:35.068Z,55.92
2023-03-02T10:32:01.801Z,54.83
2023-03-02T10:34:30.244Z,55.36
2023-03-02T10:36:57.658Z,54.43
2023-03-02T10:39:24.227Z,53.06
2023-03-02T10:41:51.109Z,53.56
2023-03-02T10:44:17.865Z,53.72
2023-03-02T10:46:44.441Z,54.94
2023-03-02T10:49:10.913Z,51.93
2023-03-02T10:51:37.872Z,54.60
2023-03-02T10:54:04.236Z,54.15
2023-03-02T10:56:31.170Z,51.58
2023-03-02T10:58:57.736Z,51.59
2023-03-02T11:01:24.337Z,52.25
2023-03-02T11:03:50.827Z,52.16
2023-03-02T11:06:17.223Z,52.26
2023-03-02T11:08:43.580Z,51.63
2023-03-02T11:11:12.376Z,52.94
2023-03-02T11:13:38.793Z,53.16
2023-03-02T11:16:05.374Z,53.90
2023-03-02T11:18:34.312Z,53.62
2023-03-02T11:21:00.942Z,53.28
2023-03-02T11:23:29.576Z,52.67
2023-03-02T11:25:56.101Z,52.30
2023-03-02T11:28:22.577Z,52.72
2023-03-02T11:30:49.450Z,52.41
2023-03-02T11:33:17.120Z,52.34
2023-03-02T11:35:43.536Z,54.00
2023-03-02T11:38:09.982Z,53.29
2023-03-02T11:40:36.766Z,53.54
2023-03-02T11:43:05.659Z,54.72
2023-03-02T11:45:32.135Z,54.36
2023-03-02T11:48:03.345Z,55.43
2023-03-02T11:50:30.364Z,55.12
2023-03-02T11:52:57.233Z,54.94
2023-03-02T11:55:25.549Z,54.93
2023-03-02T11:57:51.955Z,54.90
2023-03-02T12:00:18.952Z,53.70
2023-03-02T12:02:48.154Z,54.11
2023-03-02T12:05:14.645Z,53.94
2023-03-02T12:07:42.547Z,54.78
2023-03-02T12:10:08.895Z,54.51
2023-03-02T12:12:36.181Z,53.27
2023-03-02T12:15:02.760Z,54.39
2023-03-02T12:17:29.128Z,52.83
2023-03-02T12:19:56.079Z,53.34
2023-03-02T12:22:22.548Z,53.80
2023-03-02T12:24:48.941Z,52.85
2023-03-02T12:27:15.769Z,53.72
2023-03-02T12:29:42.244Z,53.72
2023-03-02T12:32:08.867Z,53.87
2023-03-02T12:34:35.308Z,53.93
2023-03-02T12:37:02.100Z,53.96
2023-03-02T12:39:28.463Z,54.63
2023-03-02T12:41:55.177Z,54.24
2023-03-02T12:44:21.721Z,53.65
2023-03-02T12:46:48.057Z,53.39
2023-03-02T12:49:14.504Z,53.25
2023-03-02T12:51:40.954Z,52.79
2023-03-02T12:54:07.736Z,52.80
2023-03-02T12:56:35.403Z,52.04
2023-03-02T12:59:01.844Z,52.21
2023-03-02T13:01:28.420Z,51.25
2023-03-02T13:03:55.249Z,51.01
2023-03-02T13:06:22.286Z,50.48
2023-03-02T13:08:48.758Z,50.23
2023-03-02T13:11:15.181Z,49.98
2023-03-02T13:13:41.956Z,50.27
2023-03-02T13:16:09.471Z,51.74
2023-03-02T13:18:35.977Z,52.05
2023-03-02T13:21:02.358Z,49.56
2023-03-02T13:23:29.120Z,49.49
2023-03-02T13:25:55.839Z,50.59
2023-03-02T13:28:22.308Z,50.71
2023-03-02T13:30:48.776Z,50.46
2023-03-02T13:33:15.288Z,50.86
2023-03-02T13:35:41.662Z,50.31
2023-03-02T13:38:08.338Z,49.56
2023-03-02T13:40:34.742Z,50.05
2023-03-02T13:43:01.261Z,48.98
2023-03-02T13:45:27.755Z,50.15
2023-03-02T13:47:54.274Z,50.64
2023-03-02T13:50:20.769Z,51.18
2023-03-02T13:52:47.463Z,49.97
2023-03-02T13:55:14.131Z,49.32
2023-03-02T13:57:40.628Z,49.24
2023-03-02T14:00:09.629Z,49.55
2023-03-02T14:02:36.694Z,50.23
2023-03-02T14:05:03.196Z,48.55
2023-03-02T14:07:29.637Z,47.24
2023-03-02T14:09:57.585Z,47.18
2023-03-02T14:12:25.865Z,49.23
2023-03-02T14:14:52.519Z,48.67
2023-03-02T14:17:19.016Z,47.59
2023-03-02T14:19:45.418Z,48.86
2023-03-02T14:22:16.606Z,48.07
2023-03-02T14:24:43.100Z,48.23
2023-03-02T14:27:10.468Z,48.46
2023-03-02T14:29:36.859Z,46.57
2023-03-02T14:32:03.607Z,46.88
2023-03-02T14:34:30.083Z,47.08
2023-03-02T14:36:56.470Z,47.15
2023-03-02T14:39:22.986Z,46.65
2023-03-02T14:41:53.656Z,46.95
2023-03-02T14:44:22.781Z,47.72
2023-03-02T14:46:49.623Z,46.62
2023-03-02T14:49:16.116Z,46.29
2023-03-02T14:51:42.677Z,47.00
2023-03-02T14:54:13.423Z,47.34
2023-03-02T14:56:39.842Z,47.48
2023-03-02T14:59:06.219Z,47.42
2023-03-02T15:01:33.502Z,47.30
2023-03-02T15:04:00.426Z,48.08
2023-03-02T15:06:26.995Z,47.99
2023-03-02T15:08:54.406Z,47.96
2023-03-02T15:11:24.804Z,47.73
2023-03-02T15:13:52.227Z,47.98
2023-03-02T15:16:18.746Z,48.04
2023-03-02T15:18:45.464Z,47.66
2023-03-02T15:21:11.827Z,47.26
2023-03-02T15:23:38.313Z,47.69
2023-03-02T15:26:04.694Z,47.29
2023-03-02T15:28:31.108Z,46.48
2023-03-02T15:30:58.073Z,46.31
2023-03-02T15:33:26.799Z,46.23
2023-03-02T15:35:55.270Z,46.47
2023-03-02T15:38:21.973Z,46.83
2023-03-02T15:40:49.702Z,46.81
2023-03-02T15:43:16.044Z,46.62
2023-03-02T15:45:42.482Z,47.06
2023-03-02T15:48:09.234Z,47.48
2023-03-02T15:50:35.844Z,46.21
2023-03-02T15:53:02.476Z,46.81
2023-03-02T15:55:29.174Z,47.47
2023-03-02T15:57:59.582Z,48.43
2023-03-02T16:00:26.313Z,47.96
2023-03-02T16:02:52.731Z,47.29
2023-03-02T16:05:20.209Z,48.05
2023-03-02T16:07:50.738Z,48.04
2023-03-02T16:10:18.269Z,48.53
2023-03-02T16:12:44.984Z,48.64
2023-03-02T16:15:11.370Z,48.76
2023-03-02T16:17:37.812Z,49.64
2023-03-02T16:20:04.562Z,50.29
2023-03-02T16:22:30.978Z,49.88
2023-03-02T16:24:57.584Z,51.24
2023-03-02T16:27:23.939Z,51.13
2023-03-02T16:29:53.131Z,50.76
2023-03-02T16:32:20.703Z,50.62
2023-03-02T16:34:47.122Z,51.07
2023-03-02T16:37:14.633Z,51.16
2023-03-02T16:39:42.142Z,51.48
2023-03-02T16:42:11.030Z,51.66
2023-03-02T16:44:38.207Z,51.86
2023-03-02T16:47:04.623Z,51.67
2023-03-02T16:49:31.558Z,52.29
2023-03-02T16:51:58.208Z,52.34
2023-03-02T16:54:24.715Z,52.74
2023-03-02T16:56:51.224Z,53.07
2023-03-02T16:59:17.635Z,53.26
2023-03-02T17:01:44.934Z,53.14
2023-03-02T17:04:11.581Z,53.27
2023-03-02T17:06:40.142Z,53.57
2023-03-02T17:09:08.018Z,53.64
2023-03-02T17:11:34.458Z,53.46
2023-03-02T17:14:01.130Z,53.57
2023-03-02T17:16:27.489Z,54.41
2023-03-02T17:18:54.229Z,54.64
2023-03-02T17:21:20.957Z,54.53
2023-03-02T17:23:50.376Z,55.01
2023-03-02T17:26:17.005Z,55.47
2023-03-02T17:28:43.635Z,56.67
2023-03-02T17:31:12.396Z,57.40
2023-03-02T17:33:38.919Z,56.98
2023-03-02T17:36:05.837Z,57.36
2023-03-02T17:38:34.485Z,57.97
2023-03-02T17:41:00.861Z,58.13
2023-03-02T17:43:27.373Z,58.65
2023-03-02T17:45:53.955Z,58.98
2023-03-02T17:48:20.590Z,58.98
2023-03-02T17:50:47.746Z,58.95
2023-03-02T17:53:16.957Z,59.25
2023-03-02T17:55:43.565Z,59.44
2023-03-02T17:58:10.154Z,60.00
2023-03-02T18:00:37.272Z,60.36
2023-03-02T18:03:03.730Z,60.42
2023-03-02T18:05:30.375Z,60.46
2023-03-02T18:07:56.825Z,60.53
2023-03-02T18:10:25.841Z,60.64
2023-03-02T18:12:54.317Z,60.67
2023-03-02T18:15:20.883Z,61.35
2023-03-02T18:17:47.457Z,61.58
2023-03-02T18:20:14.051Z,61.78
2023-03-02T18:22:40.551Z,62.14
2023-03-02T18:25:06.968Z,62.10
2023-03-02T18:27:33.530Z,62.20
2023-03-02T18:30:00.245Z,62.58
2023-03-02T18:32:27.019Z,62.43
2023-03-02T18:34:53.897Z,62.46
2023-03-02T18:37:20.539Z,63.46
2023-03-02T18:39:47.566Z,63.91
2023-03-02T18:42:18.368Z,64.02
2023-03-02T18:44:46.228Z,63.88
2023-03-02T18:47:12.663Z,63.78
2023-03-02T18:49:39.945Z,64.33
2023-03-02T18:52:06.333Z,64.32
2023-03-02T18:54:32.684Z,64.34
2023-03-02T18:56:59.025Z,64.66
2023-03-02T18:59:25.484Z,64.86
2023-03-02T19:01:51.971Z,65.22
2023-03-02T19:04:19.408Z,65.84
2023-03-02T19:06:46.110Z,66.08
2023-03-02T19:09:13.563Z,66.51
2023-03-02T19:11:40.391Z,66.48
2023-03-02T19:14:06.999Z,66.89
2023-03-02T19:16:33.433Z,66.87
2023-03-02T19:19:00.173Z,66.58
2023-03-02T19:21:26.576Z,66.88
2023-03-02T19:23:52.943Z,67.20
2023-03-02T19:26:19.533Z,67.40
2023-03-02T19:28:46.567Z,67.66
2023-03-02T19:31:14.404Z,67.54
2023-03-02T19:33:41.132Z,67.85
2023-03-02T19:36:07.768Z,68.05
2023-03-02T19:38:34.149Z,68.28
2023-03-02T19:41:00.544Z,68.38
2023-03-02T19:43:28.402Z,68.47
2023-03-02T19:45:55.271Z,68.41
2023-03-02T19:48:21.694Z,68.16
2023-03-02T19:50:48.175Z,68.51
2023-03-02T19:53:14.849Z,68.22
2023-03-02T19:55:41.344Z,68.35
2023-03-02T19:58:07.722Z,68.42
2023-03-02T20:00:34.112Z,68.29
2023-03-02T20:03:03.161Z,68.42
2023-03-02T20:05:29.575Z,68.68
2023-03-02T20:07:55.920Z,69.19
2023-03-02T20:10:25.322Z,69.20
2023-03-02T20:12:51.662Z,69.68
2023-03-02T20:15:18.105Z,69.69
2023-03-02T20:17:44.466Z,69.83
2023-03-02T20:20:10.822Z,70.19
2023-03-02T20:22:37.210Z,69.87
2023-03-02T20:25:05.996Z,70.09
2023-03-02T20:27:35.417Z,70.03
2023-03-02T20:30:04.308Z,70.04
2023-03-02T20:32:31.581Z,69.79
2023-03-02T20:34:58.340Z,70.33
2023-03-02T20:37:24.899Z,70.25
2023-03-02T20:39:51.579Z,70.54
2023-03-02T20:42:17.973Z,70.53
2023-03-02T20:44:46.873Z,70.29
2023-03-02T20:47:13.269Z,70.37
2023-03-02T20:49:39.673Z,70.34
2023-03-02T20:52:07.092Z,70.86
2023-03-02T20:54:33.494Z,70.50
2023-03-02T20:56:59.879Z,70.93
2023-03-02T20:59:26.253Z,71.65
2023-03-02T21:01:52.626Z,71.85
2023-03-02T21:04:19.452Z,71.91
2023-03-02T21:06:52.961Z,71.74
2023-03-02T21:09:21.790Z,71.94
2023-03-02T21:11:48.186Z,71.89
2023-03-02T21:14:14.892Z,72.14
2023-03-02T21:16:41.353Z,72.20
2023-03-02T21:19:07.789Z,72.65
2023-03-02T21:21:41.466Z,72.88
2023-03-02T21:24:08.346Z,72.97
2023-03-02T21:26:34.689Z,72.79
2023-03-02T21:29:01.119Z,73.21
2023-03-02T21:31:27.540Z,73.58
2023-03-02T21:33:53.960Z,73.54
2023-03-02T21:36:20.591Z,73.81
2023-03-02T21:38:47.020Z,73.51
2023-03-02T21:41:13.760Z,73.48
2023-03-02T21:43:40.743Z,73.76
2023-03-02T21:46:07.274Z,73.58
2023-03-02T21:48:34.119Z,73.31
2023-03-02T21:51:03.012Z,73.31
2023-03-02T21:53:33.914Z,72.76
2023-03-02T21:56:00.305Z,72.92
2023-03-02T21:58:26.672Z,72.99
2023-03-02T22:00:54.544Z,73.45
2023-03-02T22:03:22.653Z,73.16
2023-03-02T22:05:49.048Z,73.63
2023-03-02T22:08:15.446Z,73.22
2023-03-02T22:10:41.962Z,73.41
2023-03-02T22:13:08.372Z,73.11
2023-03-02T22:15:35.816Z,72.97
2023-03-02T22:18:02.416Z,72.62
2023-03-02T22:20:32.838Z,72.33
2023-03-02T22:22:59.762Z,72.75
2023-03-02T22:25:26.638Z,72.67
2023-03-02T22:27:53.229Z,72.81
2023-03-02T22:30:20.580Z,73.27
2023-03-02T22:32:47.994Z,73.32
2023-03-02T22:35:14.436Z,72.69
2023-03-02T22:37:42.225Z,73.20
2023-03-02T22:40:09.027Z,73.53
2023-03-02T22:42:35.457Z,73.71
2023-03-02T22:45:01.895Z,73.36
2023-03-02T22:47:29.254Z,74.00
2023-03-02T22:49:57.644Z,73.86
2023-03-02T22:52:24.109Z,74.04
2023-03-02T22:54:50.743Z,74.36
2023-03-02T22:57:17.796Z,74.63
2023-03-02T22:59:46.462Z,74.68
2023-03-02T23:02:12.984Z,74.83
2023-03-02T23:04:47.065Z,74.79
2023-03-02T23:07:13.925Z,75.11
2023-03-02T23:09:40.373Z,75.71
2023-03-02T23:12:07.256Z,75.49
2023-03-02T23:14:36.251Z,75.83
2023-03-02T23:17:02.759Z,75.95
2023-03-02T23:19:32.842Z,75.47
2023-03-02T23:21:59.243Z,75.87
2023-03-02T23:24:25.598Z,75.55
2023-03-02T23:26:53.605Z,75.63
2023-03-02T23:29:20.526Z,75.71
2023-03-02T23:31:49.880Z,75.05
2023-03-02T23:34:16.578Z,75.33
2023-03-02T23:36:42.974Z,75.57
2023-03-02T23:39:09.586Z,75.86
2023-03-02T23:41:36.741Z,75.60
2023-03-02T23:44:05.682Z,75.81
2023-03-02T23:46:32.075Z,76.35
2023-03-02T23:48:58.747Z,76.41
2023-03-02T23:51:25.404Z,76.17
2023-03-02T23:53:51.811Z,76.14
2023-03-02T23:56:19.217Z,76.10
2023-03-02T23:58:45.930Z,75.14
